• Join FlightAware (Why Join?)
  • Login
  • US Flag 
10:42PM EST


 

Airport Tracker/Info


-or-


 

Live Flight TrackerFlight Track Log ✈ GLA30F ✈ 09-May-2013 ✈ KDEN - KFMN

Flight Track Log - Related Links

Times and Time Zones

All times are in EDT time to prevent confusion due to time zone crossing. See the GLA30F flight status page for this flight to view local times or setup timezone preferences in your user account.

Time Position Orientation Groundspeed Altitude Reporting Facility
EDT Latitude Longitude Course Direction KTS MPH feet Rate Location/Type
10:39PM 39.8333 -104.7833 247° West 201 231 7,700  Level Denver TRACON
10:40PM 39.8111 -104.8619 250° West 205 236 9,500 1,560 Climbing Denver Center
10:41PM 39.7939 -104.9406 254° West 210 242 11,100 1,560 Climbing Denver Center
10:42PM 39.7764 -105.0175 254° West 220 253 12,700 1,560 Climbing Denver Center
10:43PM 39.7497 -105.0914 245° Southwest 224 258 14,400 1,620 Climbing Denver Center
10:44PM 39.6813 -105.1394 247° West  Level FlightAware Approximate
10:44PM 39.7194 -105.1733 244° Southwest 233 268 16,100  Level Denver Center
10:45PM 39.6908 -105.2519 245° Southwest 241 277 17,300 960 Climbing Denver Center
10:46PM 39.6583 -105.3278 241° Southwest 242 278 18,100 780 Climbing Denver Center
10:47PM 39.6256 -105.4158 244° Southwest 252 290 19,000 840 Climbing Denver Center
10:48PM 39.5947 -105.4989 244° Southwest 254 292 19,900 480 Climbing Denver Center
10:49PM 39.5606 -105.5939 245° Southwest 272 313 20,000  Climbing Denver Center
10:50PM 39.5289 -105.6886 247° West 287 330 20,000 -60 Level Denver Center
10:51PM 39.4953 -105.7833 245° Southwest 291 335 19,900 -60 Descending Denver Center
10:52PM 39.4689 -105.8711 249° West 284 327 19,900  Level Denver Center
10:53PM 39.4406 -105.9678 249° West 287 330 20,000  Climbing Denver Center
10:54PM 39.4022 -106.0828 247° West 288 331 19,900  Descending Denver Center
10:55PM 39.3722 -106.1789 248° West 289 333 20,000  Climbing Denver Center
10:56PM 39.3297 -106.2375 227° Southwest 290 334 20,000  Level Denver Center
10:57PM 39.2475 -106.3078 214° Southwest 293 337 20,000  Level Denver Center
10:58PM 39.1797 -106.3681 215° Southwest 293 337 20,000  Level Denver Center
10:59PM 39.1139 -106.4294 216° Southwest 291 335 20,000  Level Denver Center
11:00PM 39.0464 -106.4864 213° Southwest 290 334 20,000  Level Denver Center
11:01PM 38.9803 -106.5444 214° Southwest 287 330 20,000  Level Denver Center
11:02PM 38.9161 -106.6075 217° Southwest 287 330 20,000 -60 Level Denver Center
11:03PM 38.8531 -106.6717 218° Southwest 287 330 19,900  Descending Denver Center
11:04PM 38.7886 -106.7356 218° Southwest 290 334 20,000  Climbing Denver Center
11:05PM 38.7142 -106.8175 221° Southwest 292 336 20,000  Level Denver Center
11:06PM 38.6453 -106.8733 212° Southwest 292 336 20,100  Climbing Denver Center
11:07PM 38.5761 -106.9281 212° Southwest 292 336 20,000 -60 Descending Denver Center
11:08PM 38.5233 -106.9750 215° Southwest 290 334 20,000 -60 Level Denver Center
11:09PM 38.4411 -107.0425 213° Southwest 290 334 19,900  Descending Denver Center
11:10PM 38.3817 -107.0789 206° Southwest 295 339 20,000  Climbing Denver Center
11:11PM 38.2953 -107.1353 207° Southwest 290 334 20,000 -60 Level Denver Center
11:12PM 38.2375 -107.1733 207° Southwest 292 336 19,900  Descending Denver Center
11:13PM 38.1389 -107.2342 206° Southwest 291 335 20,000  Climbing Denver Center
11:14PM 38.0767 -107.2694 204° Southwest 292 336 19,900  Descending Denver Center
11:16PM 37.9950 -107.3211 207° Southwest 292 336 20,000  Climbing Denver Center
11:17PM 37.9136 -107.3706 206° Southwest 290 334 19,900  Descending Denver Center
11:18PM 37.8439 -107.4117 205° Southwest 289 333 20,000 60 Climbing Denver Center
11:19PM 37.7644 -107.4617 206° Southwest 285 328 20,100  Climbing Denver Center
11:20PM 37.6967 -107.5075 208° Southwest 288 331 20,000 -300 Descending Denver Center
11:21PM 37.6278 -107.5472 205° Southwest 285 328 19,600 -600 Descending Denver Center
11:22PM 37.5483 -107.5964 206° Southwest 285 328 18,800 -960 Descending Denver Center
11:23PM 37.4825 -107.6381 207° Southwest 277 319 17,700 -1,080 Descending Denver Center
11:24PM 37.4072 -107.6858 207° Southwest 272 313 16,700 -1,020 Descending Denver Center
11:25PM 37.3453 -107.7292 209° Southwest 268 308 15,700 -1,080 Descending Denver Center
11:26PM 37.2808 -107.7644 204° Southwest 265 305 14,600 -840 Descending Denver Center
11:27PM 37.2100 -107.8144 209° Southwest 262 302 14,000 -300 Descending Denver Center
11:28PM 37.1464 -107.8567 208° Southwest 266 306 14,000 -120 Level Denver Center
11:29PM 37.0717 -107.9053 207° Southwest 269 310 13,800 -540 Descending Denver Center
11:30PM 37.0197 -107.9356 205° Southwest 264 304 13,000 -1,140 Descending Denver Center
11:31PM 36.9486 -107.9797 206° Southwest 259 298 11,500 -1,620 Descending Denver Center
11:32PM 36.8794 -108.0219 206° Southwest 252 290 9,700 -1,320 Descending Denver Center
11:33PM 36.8256 -108.0603 210° Southwest 242 278 8,800 -1,080 Descending Denver Center
11:34PM 36.7669 -108.0992 208° Southwest 224 258 7,600 -960 Descending Denver Center
11:35PM 36.7458 -108.1336 233° Southwest 183 211 6,900 -840 Descending Denver Center
11:36PM 36.7419 -108.1883 265° West 150 173 6,000 -900 Descending Denver Center